createdAt,value
2023-03-17T00:02:42.702Z,9.60
2023-03-17T00:05:33.367Z,9.70
2023-03-17T00:08:23.240Z,9.70
2023-03-17T00:11:16.778Z,9.70
2023-03-17T00:14:03.347Z,9.60
2023-03-17T00:16:50.459Z,9.60
2023-03-17T00:19:36.593Z,9.50
2023-03-17T00:22:22.268Z,9.50
2023-03-17T00:25:22.149Z,9.50
2023-03-17T00:28:30.738Z,9.50
2023-03-17T00:31:21.230Z,9.40
2023-03-17T00:34:08.210Z,9.40
2023-03-17T00:36:53.724Z,9.30
2023-03-17T00:39:41.231Z,9.30
2023-03-17T00:42:27.056Z,9.30
2023-03-17T00:45:12.996Z,9.30
2023-03-17T00:47:58.226Z,9.30
2023-03-17T00:50:49.682Z,9.30
2023-03-17T00:53:36.154Z,9.30
2023-03-17T00:56:21.870Z,9.30
2023-03-17T00:59:36.057Z,9.30
2023-03-17T01:02:26.726Z,9.30
2023-03-17T01:05:13.110Z,9.40
2023-03-17T01:07:59.793Z,9.40
2023-03-17T01:10:48.397Z,9.40
2023-03-17T01:13:38.589Z,9.40
2023-03-17T01:16:24.086Z,9.40
2023-03-17T01:19:11.731Z,9.40
2023-03-17T01:21:58.123Z,9.40
2023-03-17T01:24:43.553Z,9.30
2023-03-17T01:27:33.700Z,9.30
2023-03-17T01:30:38.820Z,9.40
2023-03-17T01:33:25.870Z,9.40
2023-03-17T01:36:15.781Z,9.40
2023-03-17T01:39:01.333Z,9.40
2023-03-17T01:41:47.584Z,9.40
2023-03-17T01:44:33.873Z,9.40
2023-03-17T01:47:25.335Z,9.40
2023-03-17T01:50:11.096Z,9.40
2023-03-17T01:52:57.706Z,9.40
2023-03-17T01:55:45.516Z,9.40
2023-03-17T01:58:33.517Z,9.40
2023-03-17T02:01:25.602Z,9.40
2023-03-17T02:04:15.099Z,9.40
2023-03-17T02:07:00.912Z,9.40
2023-03-17T02:09:47.062Z,9.50
2023-03-17T02:12:35.571Z,9.50
2023-03-17T02:15:35.628Z,9.50
2023-03-17T02:18:26.014Z,9.50
2023-03-17T02:21:41.091Z,9.50
2023-03-17T02:24:49.757Z,9.50
2023-03-17T02:27:43.985Z,9.50
2023-03-17T02:30:30.188Z,9.50
2023-03-17T02:33:15.928Z,9.50
2023-03-17T02:36:09.513Z,9.50
2023-03-17T02:38:58.141Z,9.50
2023-03-17T02:41:49.239Z,9.50
2023-03-17T02:44:34.955Z,9.50
2023-03-17T02:47:20.817Z,9.50
2023-03-17T02:50:07.793Z,9.50
2023-03-17T02:52:53.593Z,9.50
2023-03-17T02:55:43.630Z,9.50
2023-03-17T02:58:29.284Z,9.50
2023-03-17T03:01:15.657Z,9.50
2023-03-17T03:04:01.444Z,9.50
2023-03-17T03:06:47.805Z,9.50
2023-03-17T03:09:33.112Z,9.50
2023-03-17T03:12:18.653Z,9.50
2023-03-17T03:15:05.431Z,9.50
2023-03-17T03:17:51.217Z,9.60
2023-03-17T03:20:36.746Z,9.60
2023-03-17T03:23:22.571Z,9.60
2023-03-17T03:26:10.218Z,9.60
2023-03-17T03:28:59.892Z,9.60
2023-03-17T03:31:47.771Z,9.60
2023-03-17T03:34:33.467Z,9.60
2023-03-17T03:37:18.845Z,9.60
2023-03-17T03:40:07.538Z,9.60
2023-03-17T03:42:53.713Z,9.60
2023-03-17T03:45:39.306Z,9.60
2023-03-17T03:48:24.651Z,9.60
2023-03-17T03:51:11.022Z,9.60
2023-03-17T03:53:56.242Z,9.60
2023-03-17T03:56:41.838Z,9.60
2023-03-17T03:59:27.613Z,9.60
2023-03-17T04:02:13.398Z,9.50
2023-03-17T04:04:59.354Z,9.50
2023-03-17T04:07:47.961Z,9.50
2023-03-17T04:10:34.081Z,9.60
2023-03-17T04:13:19.769Z,9.60
2023-03-17T04:16:09.815Z,9.60
2023-03-17T04:18:57.970Z,9.60
2023-03-17T04:21:46.308Z,9.60
2023-03-17T04:24:34.931Z,9.60
2023-03-17T04:27:23.258Z,9.70
2023-03-17T04:30:12.245Z,9.70
2023-03-17T04:32:58.885Z,9.70
2023-03-17T04:35:44.258Z,9.70
2023-03-17T04:38:29.897Z,9.80
2023-03-17T04:41:15.731Z,9.80
2023-03-17T04:44:01.337Z,9.80
2023-03-17T04:46:49.913Z,9.80
2023-03-17T04:49:35.369Z,9.90
2023-03-17T04:52:20.636Z,9.90
2023-03-17T04:55:08.390Z,9.90
2023-03-17T04:57:56.426Z,9.90
2023-03-17T05:00:42.038Z,9.90
2023-03-17T05:03:28.640Z,9.90
2023-03-17T05:06:14.281Z,10.00
2023-03-17T05:08:59.680Z,10.00
2023-03-17T05:11:44.921Z,10.00
2023-03-17T05:14:50.741Z,10.00
2023-03-17T05:17:36.318Z,10.10
2023-03-17T05:20:24.740Z,10.00
2023-03-17T05:23:10.552Z,10.00
2023-03-17T05:25:55.849Z,10.00
2023-03-17T05:28:41.523Z,9.90
2023-03-17T05:31:27.212Z,9.80
2023-03-17T05:34:15.181Z,9.80
2023-03-17T05:37:00.859Z,9.80
2023-03-17T05:39:46.591Z,9.80
2023-03-17T05:42:32.253Z,9.80
2023-03-17T05:45:18.656Z,9.80
2023-03-17T05:48:07.290Z,9.80
2023-03-17T05:50:55.668Z,9.80
2023-03-17T05:53:47.766Z,9.80
2023-03-17T05:56:33.944Z,9.80
2023-03-17T05:59:19.893Z,9.80
2023-03-17T06:02:05.709Z,9.70
2023-03-17T06:04:52.161Z,9.70
2023-03-17T06:07:50.885Z,9.70
2023-03-17T06:10:36.925Z,9.60
2023-03-17T06:13:23.184Z,9.60
2023-03-17T06:16:08.774Z,9.50
2023-03-17T06:18:54.526Z,9.50
2023-03-17T06:21:43.409Z,9.50
2023-03-17T06:24:28.541Z,9.50
2023-03-17T06:27:14.439Z,9.50
2023-03-17T06:30:03.190Z,9.40
2023-03-17T06:32:49.161Z,9.40
2023-03-17T06:35:35.437Z,9.50
2023-03-17T06:38:22.057Z,9.50
2023-03-17T06:41:07.822Z,9.60
2023-03-17T06:43:53.452Z,9.60
2023-03-17T06:46:41.441Z,9.70
2023-03-17T06:49:27.668Z,9.70
2023-03-17T06:52:17.206Z,9.80
2023-03-17T06:55:04.140Z,9.80
2023-03-17T06:57:51.363Z,9.80
2023-03-17T07:00:38.437Z,9.80
2023-03-17T07:03:24.184Z,9.90
2023-03-17T07:06:14.874Z,9.90
2023-03-17T07:09:03.004Z,9.90
2023-03-17T07:11:58.162Z,9.90
2023-03-17T07:14:43.378Z,9.90
2023-03-17T07:17:29.034Z,9.90
2023-03-17T07:20:14.480Z,10.00
2023-03-17T07:23:00.486Z,10.00
2023-03-17T07:25:47.478Z,10.10
2023-03-17T07:28:35.511Z,10.10
2023-03-17T07:31:20.922Z,10.20
2023-03-17T07:34:06.771Z,10.40
2023-03-17T07:36:52.271Z,10.50
2023-03-17T07:39:38.478Z,10.60
2023-03-17T07:42:24.223Z,10.70
2023-03-17T07:45:09.913Z,10.70
2023-03-17T07:47:55.190Z,10.80
2023-03-17T07:50:41.041Z,10.90
2023-03-17T07:53:26.623Z,10.90
2023-03-17T07:56:13.594Z,10.90
2023-03-17T07:59:01.924Z,10.90
2023-03-17T08:01:48.085Z,10.90
2023-03-17T08:04:34.713Z,10.90
2023-03-17T08:07:20.375Z,10.90
2023-03-17T08:10:07.438Z,10.90
2023-03-17T08:12:54.099Z,11.00
2023-03-17T08:15:39.996Z,11.00
2023-03-17T08:18:25.600Z,11.00
2023-03-17T08:21:11.471Z,11.10
2023-03-17T08:23:58.165Z,11.20
2023-03-17T08:26:53.177Z,11.30
2023-03-17T08:29:38.462Z,11.30
2023-03-17T08:32:23.678Z,11.40
2023-03-17T08:35:16.345Z,11.50
2023-03-17T08:38:02.426Z,11.60
2023-03-17T08:40:51.282Z,11.70
2023-03-17T08:43:52.456Z,11.80
2023-03-17T08:46:38.688Z,11.90
2023-03-17T08:49:28.600Z,12.00
2023-03-17T08:52:14.841Z,12.10
2023-03-17T08:55:00.852Z,12.30
2023-03-17T08:57:46.507Z,12.40
2023-03-17T09:00:31.933Z,12.50
2023-03-17T09:03:17.915Z,12.70
2023-03-17T09:06:06.666Z,12.80
2023-03-17T09:08:55.527Z,12.90
2023-03-17T09:11:41.203Z,13.10
2023-03-17T09:14:27.585Z,13.20
2023-03-17T09:17:14.609Z,13.30
2023-03-17T09:20:05.433Z,13.30
2023-03-17T09:22:51.131Z,13.30
2023-03-17T09:25:42.213Z,13.40
2023-03-17T09:28:29.133Z,13.50
2023-03-17T09:31:17.271Z,13.60
2023-03-17T09:34:05.332Z,13.70
2023-03-17T09:36:51.956Z,13.90
2023-03-17T09:39:37.799Z,14.10
2023-03-17T09:42:38.861Z,14.20
2023-03-17T09:45:43.357Z,14.40
2023-03-17T09:48:40.177Z,14.50
2023-03-17T09:51:26.654Z,14.80
2023-03-17T09:54:21.079Z,14.90
2023-03-17T09:57:28.995Z,15.10
2023-03-17T10:00:23.243Z,15.30
2023-03-17T10:03:13.407Z,15.50
2023-03-17T10:06:33.639Z,15.60
2023-03-17T10:09:30.090Z,15.90
2023-03-17T10:12:39.135Z,15.80
2023-03-17T10:15:38.419Z,15.90
2023-03-17T10:18:30.319Z,15.90
2023-03-17T10:21:24.246Z,15.80
2023-03-17T10:24:16.278Z,15.80
2023-03-17T10:27:05.973Z,15.90
2023-03-17T10:29:51.888Z,16.00
2023-03-17T10:32:39.119Z,16.10
2023-03-17T10:35:25.117Z,16.20
2023-03-17T10:38:21.060Z,16.30
2023-03-17T10:41:09.963Z,16.50
2023-03-17T10:43:57.866Z,16.50
2023-03-17T10:46:54.431Z,16.50
2023-03-17T10:49:39.987Z,16.60
2023-03-17T10:52:40.707Z,16.50
2023-03-17T10:55:38.347Z,16.50
2023-03-17T10:58:37.497Z,16.50
2023-03-17T11:01:29.246Z,16.60
2023-03-17T11:04:43.987Z,16.60
2023-03-17T11:07:40.329Z,16.70
2023-03-17T11:10:27.670Z,16.80
2023-03-17T11:13:18.782Z,16.80
2023-03-17T11:16:19.480Z,17.00
2023-03-17T11:19:12.434Z,17.10
2023-03-17T11:22:20.530Z,17.30
2023-03-17T11:25:15.880Z,17.70
2023-03-17T11:28:18.880Z,18.00
2023-03-17T11:31:30.955Z,18.30
2023-03-17T11:34:30.645Z,18.50
2023-03-17T11:37:34.105Z,18.60
2023-03-17T11:40:22.077Z,18.60
2023-03-17T11:43:35.370Z,18.40
2023-03-17T11:46:48.596Z,18.50
2023-03-17T11:49:39.679Z,18.90
2023-03-17T11:52:57.956Z,19.40
2023-03-17T11:55:52.852Z,20.10
2023-03-17T11:58:45.020Z,21.40
2023-03-17T12:01:44.138Z,21.80
2023-03-17T12:04:36.462Z,22.40
2023-03-17T12:07:37.460Z,23.30
2023-03-17T12:10:54.886Z,24.10
2023-03-17T12:13:47.628Z,24.90
2023-03-17T12:16:45.933Z,24.90
2023-03-17T12:20:04.458Z,24.60
2023-03-17T12:23:21.093Z,24.40
2023-03-17T12:26:14.136Z,24.10
2023-03-17T12:29:15.317Z,24.00
2023-03-17T12:32:20.053Z,24.10
2023-03-17T12:35:29.778Z,23.80
2023-03-17T12:38:30.655Z,23.20
2023-03-17T12:41:28.740Z,22.80
2023-03-17T12:44:38.129Z,22.60
2023-03-17T12:47:36.408Z,21.90
2023-03-17T12:50:49.859Z,21.20
2023-03-17T12:53:50.863Z,20.90
2023-03-17T12:56:43.967Z,20.70
2023-03-17T12:59:39.353Z,20.50
2023-03-17T13:02:30.574Z,20.70
2023-03-17T13:05:18.838Z,21.20
2023-03-17T13:08:08.371Z,22.00
2023-03-17T13:11:28.272Z,22.20
2023-03-17T13:14:39.736Z,22.90
2023-03-17T13:17:32.284Z,23.40
2023-03-17T13:20:20.696Z,23.50
2023-03-17T13:23:17.780Z,23.60
2023-03-17T13:26:03.133Z,23.30
2023-03-17T13:28:50.812Z,22.90
2023-03-17T13:31:37.541Z,22.20
2023-03-17T13:34:22.924Z,21.90
2023-03-17T13:37:24.797Z,21.60
2023-03-17T13:40:24.789Z,21.30
2023-03-17T13:43:16.241Z,21.10
2023-03-17T13:46:25.322Z,21.00
2023-03-17T13:49:24.210Z,21.00
2023-03-17T13:52:16.281Z,20.90
2023-03-17T13:55:26.326Z,21.00
2023-03-17T13:58:12.313Z,21.10
2023-03-17T14:01:03.779Z,21.00
2023-03-17T14:03:51.369Z,20.90
2023-03-17T14:06:38.259Z,20.90
2023-03-17T14:09:35.752Z,21.20
2023-03-17T14:12:57.656Z,21.60
2023-03-17T14:16:04.913Z,22.30
2023-03-17T14:18:55.948Z,23.20
2023-03-17T14:21:44.616Z,23.60
2023-03-17T14:24:44.145Z,23.60
2023-03-17T14:27:33.862Z,24.20
2023-03-17T14:30:28.057Z,25.20
2023-03-17T14:33:23.421Z,26.30
2023-03-17T14:36:14.341Z,27.30
2023-03-17T14:39:00.100Z,28.20
2023-03-17T14:41:45.554Z,29.20
2023-03-17T14:44:43.460Z,29.30
2023-03-17T14:47:37.797Z,29.30
2023-03-17T14:50:30.311Z,29.20
2023-03-17T14:53:16.184Z,28.80
2023-03-17T14:56:03.358Z,28.40
2023-03-17T14:58:51.740Z,27.70
2023-03-17T15:01:41.964Z,27.10
2023-03-17T15:04:32.918Z,26.70
2023-03-17T15:07:40.513Z,26.60
2023-03-17T15:10:34.542Z,26.30
2023-03-17T15:13:20.063Z,26.20
2023-03-17T15:16:29.494Z,25.80
2023-03-17T15:19:22.802Z,25.70
2023-03-17T15:22:31.146Z,26.00
2023-03-17T15:25:37.637Z,26.00
2023-03-17T15:28:27.667Z,26.30
2023-03-17T15:31:28.426Z,25.80
2023-03-17T15:34:14.966Z,25.20
2023-03-17T15:37:06.536Z,24.70
2023-03-17T15:39:55.900Z,24.30
2023-03-17T15:42:42.777Z,23.70
2023-03-17T15:45:28.646Z,23.20
2023-03-17T15:48:32.672Z,22.90
2023-03-17T15:51:22.665Z,22.70
2023-03-17T15:54:13.554Z,22.30
2023-03-17T15:57:01.428Z,22.00
2023-03-17T15:59:47.070Z,21.80
2023-03-17T16:02:34.591Z,21.40
2023-03-17T16:05:22.850Z,21.20
2023-03-17T16:08:14.878Z,21.00
2023-03-17T16:11:02.203Z,20.80
2023-03-17T16:13:47.839Z,20.60
2023-03-17T16:16:37.615Z,20.30
2023-03-17T16:19:24.946Z,20.10
2023-03-17T16:22:46.730Z,20.00
2023-03-17T16:25:34.630Z,19.90
2023-03-17T16:28:23.181Z,19.80
2023-03-17T16:31:24.963Z,19.70
2023-03-17T16:34:23.676Z,19.60
2023-03-17T16:37:16.695Z,19.50
2023-03-17T16:40:02.197Z,19.50
2023-03-17T16:42:48.769Z,19.30
2023-03-17T16:45:35.331Z,19.20
2023-03-17T16:48:21.081Z,19.10
2023-03-17T16:51:06.656Z,19.00
2023-03-17T16:53:52.114Z,18.90
2023-03-17T16:56:40.129Z,18.80
2023-03-17T16:59:31.280Z,18.80
2023-03-17T17:02:17.324Z,18.70
2023-03-17T17:05:05.614Z,18.60
2023-03-17T17:07:54.534Z,18.50
2023-03-17T17:10:41.540Z,18.50
2023-03-17T17:13:27.757Z,18.40
2023-03-17T17:16:35.455Z,18.40
2023-03-17T17:19:20.950Z,18.30
2023-03-17T17:22:08.616Z,18.30
2023-03-17T17:24:53.754Z,18.20
2023-03-17T17:27:41.851Z,18.20
2023-03-17T17:30:30.151Z,18.10
2023-03-17T17:33:16.930Z,18.00
2023-03-17T17:36:11.555Z,18.00
2023-03-17T17:38:57.113Z,17.90
2023-03-17T17:41:42.783Z,17.90
2023-03-17T17:44:28.998Z,17.80
2023-03-17T17:47:18.017Z,17.80
2023-03-17T17:50:03.757Z,17.80
2023-03-17T17:52:49.475Z,17.70
2023-03-17T17:55:47.229Z,17.70
2023-03-17T17:58:32.700Z,17.60
2023-03-17T18:01:21.900Z,17.60
2023-03-17T18:04:27.451Z,17.60
2023-03-17T18:07:14.603Z,17.50
2023-03-17T18:09:59.953Z,17.40
2023-03-17T18:12:49.284Z,17.40
2023-03-17T18:15:35.133Z,17.30
2023-03-17T18:18:20.895Z,17.30
2023-03-17T18:21:06.373Z,17.20
2023-03-17T18:23:55.150Z,17.20
2023-03-17T18:26:41.575Z,17.10
2023-03-17T18:29:27.983Z,17.00
2023-03-17T18:32:13.805Z,17.00
2023-03-17T18:35:03.353Z,16.90
2023-03-17T18:37:50.600Z,16.80
2023-03-17T18:40:36.475Z,16.70
2023-03-17T18:43:21.981Z,16.70
2023-03-17T18:46:07.777Z,16.70
2023-03-17T18:48:53.519Z,16.60
2023-03-17T18:51:39.150Z,16.60
2023-03-17T18:54:24.376Z,16.60
2023-03-17T18:57:14.260Z,16.60
2023-03-17T19:00:02.549Z,16.60
2023-03-17T19:02:47.805Z,16.60
2023-03-17T19:05:38.153Z,16.60
2023-03-17T19:08:24.413Z,16.60
2023-03-17T19:11:12.133Z,16.60
2023-03-17T19:14:00.029Z,16.60
2023-03-17T19:16:45.616Z,16.60
2023-03-17T19:19:31.833Z,16.60
2023-03-17T19:22:17.434Z,16.50
2023-03-17T19:25:04.349Z,16.50
2023-03-17T19:27:50.019Z,16.50
2023-03-17T19:30:37.534Z,16.50
2023-03-17T19:33:23.062Z,16.40
2023-03-17T19:36:13.108Z,16.40
2023-03-17T19:38:58.521Z,16.40
2023-03-17T19:41:44.312Z,16.30
2023-03-17T19:44:32.223Z,16.40
2023-03-17T19:47:18.024Z,16.30
2023-03-17T19:50:05.188Z,16.30
2023-03-17T19:52:53.073Z,16.30
2023-03-17T19:55:39.017Z,16.20
2023-03-17T19:58:31.173Z,16.20
2023-03-17T20:01:17.404Z,16.30
2023-03-17T20:04:02.728Z,16.20
2023-03-17T20:06:48.636Z,16.20
2023-03-17T20:09:35.434Z,16.20
2023-03-17T20:12:23.788Z,16.10
2023-03-17T20:15:12.455Z,16.10
2023-03-17T20:17:58.006Z,16.10
2023-03-17T20:20:50.481Z,16.00
2023-03-17T20:23:37.754Z,15.90
2023-03-17T20:26:22.958Z,15.80
2023-03-17T20:29:12.555Z,15.80
2023-03-17T20:32:04.330Z,15.70
2023-03-17T20:34:52.433Z,15.60
2023-03-17T20:37:38.837Z,15.60
2023-03-17T20:40:25.341Z,15.50
2023-03-17T20:43:11.109Z,15.50
2023-03-17T20:45:56.790Z,15.40
2023-03-17T20:48:47.679Z,15.40
2023-03-17T20:51:36.852Z,15.40
2023-03-17T20:54:23.367Z,15.30
2023-03-17T20:57:12.409Z,15.20
2023-03-17T20:59:58.250Z,15.20
2023-03-17T21:02:45.081Z,15.10
2023-03-17T21:05:32.281Z,15.10
2023-03-17T21:08:17.594Z,15.10
2023-03-17T21:11:05.472Z,15.00
2023-03-17T21:13:54.286Z,15.00
2023-03-17T21:16:42.930Z,14.90
2023-03-17T21:19:28.308Z,14.90
2023-03-17T21:22:13.977Z,14.80
2023-03-17T21:24:59.516Z,14.80
2023-03-17T21:27:46.048Z,14.70
2023-03-17T21:30:32.207Z,14.70
2023-03-17T21:33:18.133Z,14.60
2023-03-17T21:36:04.874Z,14.60
2023-03-17T21:38:52.597Z,14.60
2023-03-17T21:41:39.080Z,14.50
2023-03-17T21:44:25.004Z,14.40
2023-03-17T21:47:10.311Z,14.40
2023-03-17T21:49:56.563Z,14.40
2023-03-17T21:52:45.588Z,14.30
2023-03-17T21:55:31.935Z,14.20
2023-03-17T21:58:17.146Z,14.20
2023-03-17T22:01:02.955Z,14.10
2023-03-17T22:03:50.169Z,14.10
2023-03-17T22:06:35.850Z,14.00
2023-03-17T22:09:24.427Z,14.00
2023-03-17T22:12:24.276Z,13.90
2023-03-17T22:15:10.470Z,13.80
2023-03-17T22:17:57.786Z,13.70
2023-03-17T22:20:44.817Z,13.60
2023-03-17T22:23:54.882Z,13.60
2023-03-17T22:26:40.762Z,13.50
2023-03-17T22:29:26.481Z,13.40
2023-03-17T22:32:11.781Z,13.30
2023-03-17T22:34:57.528Z,13.20
2023-03-17T22:37:44.203Z,13.20
2023-03-17T22:40:30.717Z,13.10
2023-03-17T22:43:16.204Z,13.00
2023-03-17T22:46:01.443Z,12.90
2023-03-17T22:48:47.689Z,12.90
2023-03-17T22:51:37.200Z,12.80
2023-03-17T22:54:23.063Z,12.80
2023-03-17T22:57:08.804Z,12.80
2023-03-17T22:59:57.050Z,12.80
2023-03-17T23:02:48.504Z,12.80
2023-03-17T23:05:34.272Z,12.80
2023-03-17T23:08:20.896Z,12.80
2023-03-17T23:11:10.597Z,12.70
2023-03-17T23:14:00.043Z,12.80
2023-03-17T23:16:47.799Z,12.80
2023-03-17T23:19:45.621Z,12.80
2023-03-17T23:22:33.608Z,12.90
2023-03-17T23:25:19.337Z,12.90
2023-03-17T23:28:05.417Z,12.90
2023-03-17T23:30:52.597Z,12.90
2023-03-17T23:33:38.717Z,12.90
2023-03-17T23:36:24.466Z,12.90
2023-03-17T23:39:12.578Z,12.90
2023-03-17T23:41:57.772Z,12.90
2023-03-17T23:44:47.272Z,12.90
2023-03-17T23:47:33.782Z,13.00
2023-03-17T23:50:34.356Z,13.00
2023-03-17T23:53:22.392Z,13.00
2023-03-17T23:56:09.965Z,13.00
2023-03-17T23:58:55.899Z,12.90
